Time;durP1;ratioP1;P1;durP2;ratioP2;P2;SDS_P1;SDS_P2;PMS_P1;PMS_P2;Temp;Humidity;BMP_temperature;BMP_pressure;BME280_temperature;BME280_humidity;BME280_pressure;Samples;Min_cycle;Max_cycle;Signal;HPM_P1;HPM_P2
2022/11/24 00:01:04;;;;;;;12.80;4.27;;;;;;;8.29;80.02;100035.47;5135441;27;20189;-69
2022/11/24 00:03:31;;;;;;;5.33;4.10;;;;;;;8.34;79.99;100030.66;5134858;27;20236;-69
2022/11/24 00:06:03;;;;;;;3.90;3.53;;;;;;;8.34;79.70;100022.63;5134868;27;20646;-69
2022/11/24 00:08:29;;;;;;;16.70;4.30;;;;;;;8.37;79.94;100029.56;5135382;27;20177;-69
2022/11/24 00:11:01;;;;;;;13.23;4.23;;;;;;;8.36;80.46;100033.22;5135589;27;20185;-69
2022/11/24 00:13:27;;;;;;;10.33;4.33;;;;;;;8.32;79.86;100032.56;5134827;27;20250;-69
2022/11/24 00:15:54;;;;;;;12.90;3.40;;;;;;;8.33;80.08;100031.59;5134689;27;20180;-69
2022/11/24 00:18:20;;;;;;;9.03;4.40;;;;;;;8.29;80.05;100028.31;5134624;27;20177;-69
2022/11/24 00:20:52;;;;;;;7.53;3.67;;;;;;;8.34;79.94;100029.81;5134669;27;20192;-69
2022/11/24 00:23:18;;;;;;;4.17;3.60;;;;;;;8.32;80.18;100040.56;5134512;27;20209;-69
2022/11/24 00:25:45;;;;;;;3.97;3.53;;;;;;;8.28;80.06;100034.63;5135072;27;20189;-69
2022/11/24 00:28:11;;;;;;;18.73;3.73;;;;;;;8.25;80.37;100029.50;5134802;27;20207;-69
2022/11/24 00:30:37;;;;;;;11.33;4.70;;;;;;;8.26;80.26;100035.69;5134462;27;20193;-69
2022/11/24 00:33:04;;;;;;;14.00;4.60;;;;;;;8.17;80.29;100037.22;5134322;27;20282;-69
2022/11/24 00:35:30;;;;;;;8.40;4.13;;;;;;;8.25;80.30;100029.50;5134410;27;20188;-69
2022/11/24 00:37:56;;;;;;;5.63;3.60;;;;;;;8.19;80.54;100031.75;5134382;27;20195;-69
2022/11/24 00:40:23;;;;;;;13.60;4.53;;;;;;;8.22;80.11;100035.06;5134634;27;20192;-69
2022/11/24 00:42:49;;;;;;;9.03;5.20;;;;;;;8.19;79.75;100040.63;5134233;27;20215;-68
2022/11/24 00:45:15;;;;;;;5.23;3.80;;;;;;;8.18;79.85;100038.91;5134831;27;20194;-69
2022/11/24 00:47:42;;;;;;;10.70;3.63;;;;;;;8.19;79.64;100029.09;5134535;28;20195;-69
2022/11/24 00:50:09;;;;;;;13.00;4.30;;;;;;;8.14;79.68;100042.78;5134205;28;20187;-69
2022/11/24 00:52:35;;;;;;;13.87;4.17;;;;;;;8.14;79.60;100048.13;5134080;28;20208;-68
2022/11/24 00:55:01;;;;;;;19.07;4.67;;;;;;;8.15;79.92;100044.47;5134183;28;20188;-68
2022/11/24 00:57:28;;;;;;;14.03;4.23;;;;;;;8.18;79.02;100046.06;5134469;27;20180;-69
2022/11/24 00:59:54;;;;;;;7.53;4.07;;;;;;;8.12;79.39;100054.50;5137963;27;20195;-69
2022/11/24 01:02:20;;;;;;;9.40;3.03;;;;;;;8.18;79.69;100051.41;5138685;27;20184;-69
2022/11/24 01:04:47;;;;;;;16.37;4.27;;;;;;;8.20;79.24;100058.31;5138345;27;20204;-69
2022/11/24 01:07:13;;;;;;;12.63;3.80;;;;;;;8.19;78.74;100059.31;5138341;27;20581;-69
2022/11/24 01:09:42;;;;;;;10.60;3.93;;;;;;;8.19;78.76;100061.97;5138812;27;20197;-69
2022/11/24 01:12:08;;;;;;;9.00;4.07;;;;;;;8.14;78.92;100071.25;5138480;27;20200;-69
2022/11/24 01:14:34;;;;;;;10.07;3.93;;;;;;;8.19;78.47;100069.97;5138078;27;20223;-68
2022/11/24 01:17:01;;;;;;;11.37;5.13;;;;;;;8.17;78.38;100069.22;5138664;27;20223;-68
2022/11/24 01:19:28;;;;;;;7.60;5.07;;;;;;;8.16;78.37;100075.50;5138124;27;20185;-68
2022/11/24 01:21:54;;;;;;;11.27;6.03;;;;;;;8.14;78.45;100080.13;5138189;27;20558;-68
2022/11/24 01:24:20;;;;;;;14.43;4.03;;;;;;;8.16;78.37;100080.84;5137923;27;20192;-68
2022/11/24 01:26:47;;;;;;;7.87;4.57;;;;;;;8.16;78.67;100086.19;5138197;27;20663;-68
2022/11/24 01:29:13;;;;;;;9.03;3.73;;;;;;;8.03;78.91;100080.88;5138209;27;20187;-69
2022/11/24 01:31:40;;;;;;;9.93;3.97;;;;;;;8.04;78.66;100085.25;5137864;27;20185;-69
2022/11/24 01:34:06;;;;;;;11.67;4.97;;;;;;;8.07;78.89;100092.19;5137689;27;20235;-70
2022/11/24 01:36:33;;;;;;;21.13;6.20;;;;;;;8.02;78.73;100091.66;5137721;27;20188;-69
2022/11/24 01:38:59;;;;;;;4.83;4.40;;;;;;;7.99;79.17;100097.22;5137735;27;20180;-69
2022/11/24 01:41:26;;;;;;;9.20;5.47;;;;;;;7.98;78.95;100091.03;5137676;27;20218;-69
2022/11/24 01:43:53;;;;;;;6.70;3.57;;;;;;;7.97;79.04;100093.78;5137570;27;20212;-68
2022/11/24 01:46:22;;;;;;;15.00;3.90;;;;;;;7.91;79.49;100100.44;5137600;27;20191;-68
2022/11/24 01:49:07;;;;;;;25.00;6.63;;;;;;;7.87;79.00;100096.25;5138060;27;20189;-68
2022/11/24 01:51:56;;;;;;;12.37;5.30;;;;;;;7.90;79.18;100088.03;5137470;27;20668;-68
2022/11/24 01:54:38;;;;;;;8.77;3.97;;;;;;;7.89;79.07;100099.69;5087618;27;20240;-69
2022/11/24 01:57:27;;;;;;;8.40;3.90;;;;;;;7.91;79.46;100100.44;5137923;27;20181;-69
2022/11/24 01:59:58;;;;;;;8.67;4.00;;;;;;;7.91;78.98;100096.91;5137314;27;20188;-69
2022/11/24 02:02:27;;;;;;;10.00;4.00;;;;;;;7.98;79.35;100096.38;5118996;27;20553;-69
2022/11/24 02:04:57;;;;;;;11.00;4.43;;;;;;;8.03;78.77;100101.38;5137485;27;20191;-68
2022/11/24 02:07:24;;;;;;;7.13;3.00;;;;;;;8.09;78.59;100099.13;5137771;27;20179;-68
2022/11/24 02:09:54;;;;;;;4.40;2.97;;;;;;;8.12;78.44;100106.06;5135835;27;20230;-68
2022/11/24 02:12:23;;;;;;;5.77;2.97;;;;;;;8.11;78.91;100107.00;5137649;27;20198;-68
2022/11/24 02:14:50;;;;;;;13.73;3.57;;;;;;;8.09;78.26;100103.56;5136927;27;20208;-68
2022/11/24 02:17:17;;;;;;;5.80;3.17;;;;;;;8.08;78.21;100097.41;5137309;27;20185;-69
2022/11/24 02:19:56;;;;;;;5.40;3.77;;;;;;;8.20;77.94;100100.16;5137199;27;20204;-69
2022/11/24 02:22:44;;;;;;;10.07;3.67;;;;;;;8.20;77.84;100103.66;5137066;27;20211;-69
2022/11/24 02:25:26;;;;;;;5.33;3.10;;;;;;;8.17;77.76;100103.06;5136888;27;20173;-68
2022/11/24 02:27:54;;;;;;;5.87;3.60;;;;;;;8.20;78.04;100105.50;5137076;27;20189;-69
2022/11/24 02:30:21;;;;;;;12.47;3.37;;;;;;;8.21;77.68;100109.84;5137048;27;20195;-69
2022/11/24 02:32:48;;;;;;;8.17;3.20;;;;;;;8.16;78.16;100106.66;5137098;27;20177;-68
2022/11/24 02:35:15;;;;;;;23.43;3.40;;;;;;;8.16;78.13;100110.19;5136978;27;20172;-68
2022/11/24 02:37:41;;;;;;;4.97;3.33;;;;;;;8.21;78.12;100113.41;5136663;27;20260;-68
2022/11/24 02:40:08;;;;;;;10.23;3.57;;;;;;;8.29;77.41;100118.16;5137136;27;20645;-68
2022/11/24 02:42:39;;;;;;;11.03;3.67;;;;;;;8.30;77.98;100115.38;5136676;27;20196;-68
2022/11/24 02:45:08;;;;;;;6.37;2.87;;;;;;;8.38;77.11;100121.97;5136783;27;20176;-69
2022/11/24 02:47:34;;;;;;;6.97;3.77;;;;;;;8.38;77.07;100124.63;5136383;27;20194;-69
2022/11/24 02:50:00;;;;;;;12.23;3.07;;;;;;;8.37;76.94;100120.28;5136395;27;20677;-69
2022/11/24 02:52:27;;;;;;;13.00;2.97;;;;;;;8.37;77.07;100122.94;5136336;27;20181;-69
2022/11/24 02:54:53;;;;;;;5.47;2.97;;;;;;;8.31;77.11;100125.09;5136693;27;20207;-69
2022/11/24 02:57:22;;;;;;;6.20;4.00;;;;;;;8.41;76.74;100129.81;5136226;27;20548;-69
2022/11/24 02:59:48;;;;;;;11.53;3.70;;;;;;;8.42;76.62;100129.69;5136766;27;20611;-68
2022/11/24 03:02:14;;;;;;;9.53;4.03;;;;;;;8.34;77.17;100131.19;5136100;27;20184;-69
2022/11/24 03:04:43;;;;;;;9.50;3.27;;;;;;;8.38;76.78;100136.19;5135998;27;20211;-68
2022/11/24 03:07:09;;;;;;;5.03;2.97;;;;;;;8.38;76.90;100128.19;5136267;27;20189;-68
2022/11/24 03:09:36;;;;;;;7.90;2.43;;;;;;;8.38;77.10;100129.97;5135982;27;20271;-69
2022/11/24 03:12:03;;;;;;;8.13;2.77;;;;;;;8.44;76.45;100132.25;5135923;27;20676;-69
2022/11/24 03:14:30;;;;;;;8.80;3.27;;;;;;;8.42;76.24;100136.84;5135711;27;20576;-69
2022/11/24 03:16:57;;;;;;;5.80;3.10;;;;;;;8.45;76.39;100136.59;5136049;27;20196;-69
2022/11/24 03:19:23;;;;;;;9.43;3.53;;;;;;;8.48;76.23;100139.91;5135731;27;20655;-69
2022/11/24 03:21:49;;;;;;;14.50;3.63;;;;;;;8.47;76.48;100142.69;5135190;27;20200;-69
2022/11/24 03:24:15;;;;;;;13.77;3.73;;;;;;;8.51;76.05;100139.69;5135677;27;20212;-68
2022/11/24 03:26:42;;;;;;;9.80;3.70;;;;;;;8.54;76.27;100137.75;5135603;27;20192;-69
2022/11/24 03:29:08;;;;;;;5.87;3.90;;;;;;;8.55;76.05;100139.44;5135808;27;20189;-69
2022/11/24 03:31:34;;;;;;;6.90;3.30;;;;;;;8.52;76.54;100133.41;5135515;27;20181;-69
2022/11/24 03:34:01;;;;;;;7.43;3.33;;;;;;;8.52;76.37;100138.75;5135352;27;20208;-69
2022/11/24 03:36:27;;;;;;;9.83;3.57;;;;;;;8.51;76.26;100137.00;5135474;27;20187;-69
2022/11/24 03:38:54;;;;;;;12.27;5.20;;;;;;;8.50;76.08;100150.50;5135926;27;20176;-69
2022/11/24 03:41:20;;;;;;;9.93;4.23;;;;;;;8.54;76.32;100157.28;5135687;27;20277;-69
2022/11/24 03:43:46;;;;;;;7.80;3.83;;;;;;;8.49;76.85;100154.94;5135226;27;20196;-68
2022/11/24 03:46:13;;;;;;;8.80;5.37;;;;;;;8.46;76.64;100154.34;5135460;27;20211;-68
2022/11/24 03:48:39;;;;;;;12.87;4.30;;;;;;;8.43;76.64;100152.75;5135199;27;20547;-68
2022/11/24 03:51:06;;;;;;;17.47;5.00;;;;;;;8.44;76.79;100159.78;5135124;27;20189;-68
2022/11/24 03:53:33;;;;;;;14.77;4.03;;;;;;;8.41;76.64;100153.81;5134950;27;20223;-68
2022/11/24 03:56:00;;;;;;;14.50;6.00;;;;;;;8.49;76.97;100160.28;5135365;27;20173;-68
2022/11/24 03:58:27;;;;;;;14.37;4.70;;;;;;;8.40;76.55;100163.63;5135021;27;20184;-68
2022/11/24 04:00:54;;;;;;;7.60;3.23;;;;;;;8.42;77.12;100167.03;5134943;27;20207;-68
2022/11/24 04:03:22;;;;;;;7.30;3.57;;;;;;;8.41;76.68;100167.16;5135416;27;20196;-68
2022/11/24 04:05:48;;;;;;;8.33;3.40;;;;;;;8.48;76.66;100166.59;5134897;27;20188;-68
2022/11/24 04:08:15;;;;;;;12.70;3.80;;;;;;;8.43;76.57;100168.75;5135083;27;20560;-68
2022/11/24 04:10:42;;;;;;;12.03;5.80;;;;;;;8.46;77.19;100168.53;5135352;27;20191;-68
2022/11/24 04:13:16;;;;;;;5.40;4.47;;;;;;;8.50;76.85;100179.84;5134649;27;20544;-68
2022/11/24 04:15:43;;;;;;;14.07;5.10;;;;;;;8.48;76.67;100179.09;5135270;27;20180;-69
2022/11/24 04:18:11;;;;;;;6.63;3.33;;;;;;;8.51;76.98;100176.19;5134638;27;20188;-69
2022/11/24 04:20:39;;;;;;;7.43;3.73;;;;;;;8.49;77.12;100168.28;5134712;27;20576;-69
2022/11/24 04:23:05;;;;;;;13.80;3.77;;;;;;;8.51;77.18;100179.72;5134771;27;20205;-68
2022/11/24 04:25:32;;;;;;;10.53;3.50;;;;;;;8.58;77.25;100179.28;5134582;27;20180;-69
2022/11/24 04:27:59;;;;;;;13.73;3.40;;;;;;;8.52;77.33;100191.22;5134523;27;20188;-70
2022/11/24 04:30:27;;;;;;;5.03;3.57;;;;;;;8.59;77.20;100180.97;5134771;27;20176;-68
2022/11/24 04:32:54;;;;;;;10.27;3.90;;;;;;;8.59;77.25;100189.00;5133861;27;20690;-68
2022/11/24 04:35:20;;;;;;;15.50;4.53;;;;;;;8.61;77.17;100197.75;5134891;27;20211;-68
2022/11/24 04:37:47;;;;;;;11.63;4.30;;;;;;;8.56;77.27;100195.41;5134387;27;20193;-68
2022/11/24 04:40:13;;;;;;;10.50;3.60;;;;;;;8.65;77.12;100193.91;5134349;27;20203;-69
2022/11/24 04:42:40;;;;;;;8.33;3.30;;;;;;;8.64;77.30;100202.84;5134274;27;20552;-68
2022/11/24 04:45:07;;;;;;;8.23;3.40;;;;;;;8.61;77.78;100200.41;5134310;27;20176;-68
2022/11/24 04:47:34;;;;;;;11.07;4.00;;;;;;;8.61;78.27;100201.25;5134170;27;20203;-68
2022/11/24 04:50:00;;;;;;;19.37;4.00;;;;;;;8.60;78.75;100212.06;5134253;28;20176;-69
2022/11/24 04:52:28;;;;;;;13.50;3.83;;;;;;;8.52;78.72;100208.13;5134217;28;20190;-69
2022/11/24 04:54:55;;;;;;;9.40;2.93;;;;;;;8.56;79.03;100213.22;5134075;28;20208;-69
2022/11/24 04:57:24;;;;;;;5.43;3.17;;;;;;;8.62;78.81;100215.44;5134392;28;20669;-69
2022/11/24 04:59:51;;;;;;;14.43;4.00;;;;;;;8.47;79.22;100214.72;5134098;28;20185;-69
2022/11/24 05:02:18;;;;;;;11.57;3.83;;;;;;;8.49;79.27;100220.81;5134348;28;20184;-69
2022/11/24 05:04:45;;;;;;;12.90;2.83;;;;;;;8.46;78.71;100218.38;5133976;28;20208;-68
2022/11/24 05:07:13;;;;;;;5.30;3.30;;;;;;;8.46;78.96;100226.38;5134078;28;20188;-69
2022/11/24 05:12:30;;;;;;;13.30;4.40;;;;;;;8.45;79.53;100236.22;5134518;28;20173;-68
2022/11/24 05:15:01;;;;;;;8.37;3.57;;;;;;;8.49;78.75;100245.69;5133903;28;20566;-68
2022/11/24 05:17:29;;;;;;;11.23;4.43;;;;;;;8.48;79.06;100251.16;5134242;28;20172;-68
2022/11/24 05:19:56;;;;;;;16.23;4.40;;;;;;;8.56;78.97;100245.25;5134163;28;20543;-68
2022/11/24 05:22:22;;;;;;;11.83;4.93;;;;;;;8.52;78.87;100250.84;5133807;28;20204;-68
2022/11/24 05:24:49;;;;;;;18.00;3.80;;;;;;;8.44;79.15;100255.84;5133831;28;20204;-68
2022/11/24 05:27:15;;;;;;;15.17;4.07;;;;;;;8.49;78.91;100260.84;5134373;28;20540;-68
2022/11/24 05:29:42;;;;;;;11.20;3.93;;;;;;;8.54;78.52;100263.19;5133845;28;20185;-68
2022/11/24 05:32:08;;;;;;;8.77;3.37;;;;;;;8.54;78.71;100263.19;5134101;28;20185;-68
2022/11/24 05:34:35;;;;;;;12.03;3.67;;;;;;;8.54;78.76;100264.03;5133599;28;20212;-68
2022/11/24 05:37:02;;;;;;;14.53;4.70;;;;;;;8.55;78.31;100256.88;5133717;28;20169;-68
2022/11/24 05:39:33;;;;;;;15.20;4.07;;;;;;;8.65;78.22;100260.63;5133690;28;20191;-68
2022/11/24 05:42:39;;;;;;;31.73;3.97;;;;;;;8.59;77.92;100261.91;5134065;28;20183;-68
2022/11/24 05:44:51;;;;;;;12.40;3.97;;;;;;;8.60;77.55;100262.78;5135651;27;20299;-68
2022/11/24 05:47:18;;;;;;;13.63;4.80;;;;;;;8.57;77.59;100268.31;5137548;27;20180;-68
2022/11/24 05:49:45;;;;;;;16.10;4.17;;;;;;;8.61;78.13;100272.47;5137544;27;20546;-68
2022/11/24 05:52:11;;;;;;;14.97;4.23;;;;;;;8.66;78.17;100273.00;5138028;27;20165;-69
2022/11/24 05:54:37;;;;;;;16.07;4.03;;;;;;;8.59;78.38;100267.22;5137590;27;20230;-69
2022/11/24 05:57:04;;;;;;;16.43;4.20;;;;;;;8.61;77.99;100272.47;5137372;27;20192;-69
2022/11/24 05:59:30;;;;;;;23.00;4.43;;;;;;;8.61;77.96;100267.97;5137586;27;20181;-68
2022/11/24 06:01:56;;;;;;;9.23;4.00;;;;;;;8.65;78.14;100273.97;5137183;27;20650;-68
2022/11/24 06:04:23;;;;;;;17.40;4.13;;;;;;;8.56;78.22;100285.31;5137454;27;20200;-68
2022/11/24 06:06:49;;;;;;;13.63;3.80;;;;;;;8.68;77.93;100279.09;5137497;27;20239;-68
2022/11/24 06:09:16;;;;;;;16.20;4.53;;;;;;;8.66;77.73;100283.69;5137141;27;20189;-68
2022/11/24 06:11:42;;;;;;;17.53;4.33;;;;;;;8.65;77.68;100281.97;5137040;27;20195;-68
2022/11/24 06:14:09;;;;;;;8.70;3.67;;;;;;;8.63;77.99;100300.75;5137214;27;20212;-68
2022/11/24 06:16:37;;;;;;;10.77;3.63;;;;;;;8.68;77.65;100289.75;5136919;27;20234;-68
2022/11/24 06:19:03;;;;;;;14.70;3.83;;;;;;;8.73;77.33;100284.94;5137507;27;20226;-69
2022/11/24 06:21:30;;;;;;;13.37;3.80;;;;;;;8.72;77.67;100296.59;5136736;27;20197;-69
2022/11/24 06:23:57;;;;;;;13.73;3.77;;;;;;;8.72;77.70;100293.94;5136998;27;20200;-68
2022/11/24 06:26:23;;;;;;;7.23;3.73;;;;;;;8.68;77.55;100295.94;5136799;27;20663;-68
2022/11/24 06:28:49;;;;;;;12.47;4.10;;;;;;;8.63;77.53;100306.09;5137062;27;20192;-68
2022/11/24 06:31:16;;;;;;;14.20;5.23;;;;;;;8.60;77.44;100292.97;5136718;27;20181;-68
2022/11/24 06:33:42;;;;;;;15.47;4.73;;;;;;;8.59;77.62;100299.25;5136499;27;20216;-68
2022/11/24 06:36:12;;;;;;;18.03;5.67;;;;;;;8.61;78.13;100312.50;5136698;27;20188;-68
2022/11/24 06:38:38;;;;;;;13.27;3.80;;;;;;;8.65;77.35;100319.34;5136842;27;20605;-68
2022/11/24 06:41:08;;;;;;;16.27;4.50;;;;;;;8.65;77.51;100322.88;5136760;27;20192;-68
2022/11/24 06:43:35;;;;;;;30.80;4.93;;;;;;;8.59;78.14;100319.78;5136611;27;20208;-68
2022/11/24 06:46:02;;;;;;;8.20;4.00;;;;;;;8.63;77.07;100324.78;5136383;27;20545;-68
2022/11/24 06:48:29;;;;;;;18.30;4.10;;;;;;;8.62;77.14;100336.44;5136612;27;20184;-68
2022/11/24 06:51:00;;;;;;;19.37;4.20;;;;;;;8.58;77.95;100334.94;5136776;27;20192;-68
2022/11/24 06:53:32;;;;;;;16.33;3.90;;;;;;;8.58;77.51;100334.09;5136172;27;20219;-68
2022/11/24 06:56:00;;;;;;;12.13;4.50;;;;;;;8.68;76.96;100351.16;5135333;27;20199;-68
2022/11/24 06:58:26;;;;;;;7.53;3.70;;;;;;;8.66;77.04;100343.25;5136517;27;20176;-68
2022/11/24 07:00:53;;;;;;;19.00;3.90;;;;;;;8.67;77.09;100342.31;5136631;27;20179;-68
2022/11/24 07:03:19;;;;;;;11.40;3.67;;;;;;;8.74;76.93;100350.75;5135958;27;20220;-68
2022/11/24 07:05:46;;;;;;;12.30;4.57;;;;;;;8.67;76.57;100354.81;5136035;27;20177;-68
2022/11/24 07:08:13;;;;;;;8.57;3.23;;;;;;;8.73;76.70;100365.03;5136199;27;20651;-68
2022/11/24 07:10:43;;;;;;;13.73;3.93;;;;;;;8.70;76.66;100368.78;5135973;27;20172;-68
2022/11/24 07:13:09;;;;;;;11.90;3.87;;;;;;;8.71;76.49;100372.28;5135815;27;20204;-68
2022/11/24 07:15:36;;;;;;;12.53;3.80;;;;;;;8.68;76.19;100373.38;5135735;27;20208;-68
2022/11/24 07:18:02;;;;;;;10.10;3.40;;;;;;;8.74;76.63;100380.13;5135773;27;20271;-68
2022/11/24 07:20:29;;;;;;;7.00;3.40;;;;;;;8.69;76.29;100384.91;5135577;27;20215;-68
2022/11/24 07:22:56;;;;;;;16.67;4.20;;;;;;;8.71;76.39;100391.00;5135646;27;20200;-68
2022/11/24 07:25:26;;;;;;;10.00;3.60;;;;;;;8.76;76.34;100396.84;5135670;27;20189;-68
2022/11/24 07:27:56;;;;;;;5.13;2.93;;;;;;;8.77;75.81;100398.59;5135523;27;20188;-68
2022/11/24 07:30:24;;;;;;;8.10;3.67;;;;;;;8.84;75.81;100405.19;5135526;27;20681;-68
2022/11/24 07:32:50;;;;;;;18.33;3.43;;;;;;;8.82;76.08;100401.78;5135370;27;20603;-68
2022/11/24 07:35:16;;;;;;;7.37;3.43;;;;;;;8.87;75.65;100414.81;5135356;27;20208;-68
2022/11/24 07:37:43;;;;;;;12.27;3.47;;;;;;;8.89;75.40;100412.91;5135383;27;20565;-68
2022/11/24 07:40:10;;;;;;;16.33;4.20;;;;;;;8.89;75.04;100419.09;5135614;27;20568;-68
2022/11/24 07:42:36;;;;;;;10.23;2.87;;;;;;;9.01;74.53;100424.53;5135520;27;20664;-68
2022/11/24 07:45:03;;;;;;;7.40;3.33;;;;;;;8.96;74.97;100429.34;5135284;27;20195;-68
2022/11/24 07:47:29;;;;;;;6.13;2.53;;;;;;;8.90;74.81;100430.63;5135770;27;20191;-68
2022/11/24 07:49:55;;;;;;;8.77;3.07;;;;;;;8.93;74.55;100435.72;5135177;27;20200;-68
2022/11/24 07:52:25;;;;;;;9.60;2.33;;;;;;;8.91;74.19;100441.19;5135130;27;20184;-68
2022/11/24 07:54:51;;;;;;;7.97;3.30;;;;;;;8.90;74.30;100452.81;5134909;27;20215;-68
2022/11/24 07:57:18;;;;;;;4.83;2.70;;;;;;;8.88;74.59;100459.25;5135250;27;20524;-68
2022/11/24 07:59:44;;;;;;;3.87;2.63;;;;;;;8.86;75.08;100466.50;5135480;27;20176;-68
2022/11/24 08:02:11;;;;;;;6.17;2.60;;;;;;;8.88;74.97;100468.13;5134934;27;20193;-68
2022/11/24 08:04:38;;;;;;;3.13;2.57;;;;;;;8.86;75.10;100472.72;5134859;27;20215;-68
2022/11/24 08:07:04;;;;;;;11.13;3.37;;;;;;;8.86;75.21;100470.03;5134844;27;20666;-68
2022/11/24 08:09:31;;;;;;;4.07;2.67;;;;;;;8.78;75.74;100468.84;5134830;27;20180;-68
2022/11/24 08:11:57;;;;;;;12.77;3.27;;;;;;;8.76;75.83;100482.28;5134777;27;20181;-68
2022/11/24 08:14:23;;;;;;;2.37;2.27;;;;;;;8.80;75.11;100486.47;5134496;27;20721;-68
2022/11/24 08:16:50;;;;;;;5.27;2.60;;;;;;;8.84;74.64;100482.66;5134992;27;20189;-68
2022/11/24 08:19:16;;;;;;;2.63;2.43;;;;;;;8.80;75.02;100496.31;5135528;27;20577;-68
2022/11/24 08:21:42;;;;;;;8.53;3.03;;;;;;;8.78;74.45;100492.88;5134390;27;20188;-68
2022/11/24 08:24:09;;;;;;;7.77;2.50;;;;;;;8.67;73.74;100501.63;5134369;27;20279;-68
2022/11/24 08:26:35;;;;;;;4.23;2.90;;;;;;;8.60;74.95;100505.69;5134363;27;20180;-68
2022/11/24 08:29:02;;;;;;;2.90;2.70;;;;;;;8.62;73.53;100504.63;5134543;27;20199;-68
2022/11/24 08:31:34;;;;;;;6.83;2.87;;;;;;;8.70;73.60;100506.75;5134689;27;20532;-68
2022/11/24 08:34:02;;;;;;;2.80;2.70;;;;;;;8.73;72.70;100511.88;5134707;27;20214;-68
2022/11/24 08:36:29;;;;;;;3.00;2.63;;;;;;;8.71;73.10;100514.69;5134596;27;20196;-68
2022/11/24 08:38:57;;;;;;;4.53;2.67;;;;;;;8.77;73.49;100524.06;5134388;27;20193;-68
2022/11/24 08:41:24;;;;;;;4.10;2.63;;;;;;;8.82;73.04;100526.44;5134338;27;20184;-68
2022/11/24 08:43:50;;;;;;;2.93;2.37;;;;;;;8.82;73.59;100526.44;5134255;27;20705;-68
2022/11/24 08:46:17;;;;;;;2.60;2.50;;;;;;;8.74;72.61;100534.97;5134279;27;20188;-68
2022/11/24 08:48:48;;;;;;;3.23;3.13;;;;;;;8.75;72.62;100533.16;5134478;27;20176;-68
2022/11/24 08:51:18;;;;;;;2.87;2.53;;;;;;;8.77;72.66;100531.22;5116064;28;20188;-68
2022/11/24 08:53:45;;;;;;;5.03;2.83;;;;;;;8.59;72.85;100535.97;5134264;28;20216;-69
2022/11/24 08:56:12;;;;;;;3.07;2.77;;;;;;;8.57;73.61;100544.09;5134353;28;20211;-69
2022/11/24 08:58:39;;;;;;;5.47;2.57;;;;;;;8.59;74.18;100546.66;5134177;28;20181;-68
2022/11/24 09:01:11;;;;;;;6.47;2.60;;;;;;;8.57;74.31;100548.56;5134002;28;20184;-68
2022/11/24 09:03:39;;;;;;;2.33;2.27;;;;;;;8.55;74.36;100550.47;5134664;28;20209;-68
2022/11/24 09:06:14;;;;;;;4.07;2.20;;;;;;;8.54;75.00;100565.66;5134411;28;20263;-68
2022/11/24 09:08:40;;;;;;;6.30;2.00;;;;;;;8.60;75.24;100564.41;5133996;28;20659;-69
2022/11/24 09:11:09;;;;;;;3.03;2.77;;;;;;;8.57;75.47;100567.25;5134285;28;20579;-69
2022/11/24 09:13:36;;;;;;;7.60;2.60;;;;;;;8.60;74.71;100567.06;5133825;28;20211;-68
2022/11/24 09:16:03;;;;;;;13.80;2.80;;;;;;;8.60;75.46;100565.25;5133881;28;20212;-68
2022/11/24 09:18:30;;;;;;;1.83;1.83;;;;;;;8.57;75.22;100565.47;5134240;27;20188;-68
2022/11/24 09:21:11;;;;;;;4.20;2.23;;;;;;;8.55;75.69;100577.16;5137511;27;20200;-68
2022/11/24 09:23:38;;;;;;;3.47;3.27;;;;;;;8.55;75.13;100572.72;5138606;27;20204;-68
2022/11/24 09:26:13;;;;;;;2.67;2.57;;;;;;;8.61;74.82;100579.44;5138027;27;20190;-68
2022/11/24 09:28:40;;;;;;;2.77;2.57;;;;;;;8.61;74.62;100584.78;5138578;27;20176;-68
2022/11/24 09:31:09;;;;;;;10.33;3.83;;;;;;;8.66;74.90;100590.66;5138427;27;20271;-68
2022/11/24 09:33:37;;;;;;;2.77;2.57;;;;;;;8.60;75.11;100591.94;5137842;27;20196;-68
2022/11/24 09:36:04;;;;;;;2.93;2.83;;;;;;;8.57;75.42;100584.16;5137760;27;20211;-68
2022/11/24 09:38:31;;;;;;;3.17;2.93;;;;;;;8.64;75.53;100596.13;5137782;27;20650;-68
2022/11/24 09:41:25;;;;;;;6.47;2.77;;;;;;;8.72;74.94;100603.63;5138002;27;20552;-68
2022/11/24 09:44:01;;;;;;;3.50;3.20;;;;;;;8.80;75.30;100611.97;5137858;27;20208;-68
2022/11/24 09:46:50;;;;;;;7.30;3.13;;;;;;;8.84;73.96;100613.50;5138151;27;20176;-68
2022/11/24 09:49:31;;;;;;;5.07;3.27;;;;;;;8.81;74.53;100616.38;5138180;27;20168;-68
2022/11/24 09:52:02;;;;;;;16.07;3.70;;;;;;;8.85;75.06;100625.88;5137568;27;20212;-68
2022/11/24 09:54:31;;;;;;;10.63;3.53;;;;;;;8.94;75.01;100627.09;5137678;27;20207;-68
2022/11/24 09:57:00;;;;;;;6.47;4.13;;;;;;;8.86;75.12;100627.59;5137314;27;20177;-68
2022/11/24 09:59:27;;;;;;;4.33;3.47;;;;;;;8.86;74.74;100638.28;5137643;27;20196;-68
2022/11/24 10:01:54;;;;;;;7.17;3.67;;;;;;;8.87;74.73;100634.66;5137621;27;20192;-68
2022/11/24 10:04:24;;;;;;;7.57;4.10;;;;;;;8.87;75.02;100633.78;5137439;27;20225;-68
2022/11/24 10:07:08;;;;;;;4.03;3.70;;;;;;;8.84;75.47;100647.34;5137183;27;20253;-68
2022/11/24 10:09:37;;;;;;;3.90;3.60;;;;;;;8.86;74.86;100648.97;5137460;27;20180;-68
2022/11/24 10:12:45;;;;;;;6.87;3.80;;;;;;;8.84;75.08;100647.34;5137046;27;20203;-68
2022/11/24 10:15:24;;;;;;;8.17;4.27;;;;;;;8.80;75.74;100659.19;5103840;27;20224;-68
2022/11/24 10:18:17;;;;;;;4.10;3.80;;;;;;;8.79;75.46;100653.00;5137454;27;20181;-68
2022/11/24 10:21:08;;;;;;;16.53;3.50;;;;;;;8.87;75.51;100664.03;5137295;27;20192;-68
2022/11/24 10:23:57;;;;;;;7.23;3.57;;;;;;;8.88;75.22;100660.41;5137069;27;20213;-68
2022/11/24 10:26:47;;;;;;;17.63;4.00;;;;;;;8.88;75.48;100663.09;5136969;27;20166;-68
2022/11/24 10:29:23;;;;;;;6.07;4.40;;;;;;;8.92;75.42;100667.25;5136939;27;20173;-68
2022/11/24 10:31:53;;;;;;;3.50;3.30;;;;;;;8.94;74.89;100669.81;5135846;27;20187;-68
2022/11/24 10:34:27;;;;;;;5.00;3.60;;;;;;;8.99;75.12;100666.84;5136964;27;20204;-68
2022/11/24 10:37:00;;;;;;;15.37;3.20;;;;;;;9.01;75.31;100670.28;5136974;27;20216;-68
2022/11/24 10:39:45;;;;;;;11.93;3.37;;;;;;;9.02;75.16;100677.31;5136989;27;20533;-68
2022/11/24 10:42:25;;;;;;;5.83;3.97;;;;;;;9.10;75.15;100680.38;5136843;27;20184;-69
2022/11/24 10:45:00;;;;;;;4.17;3.13;;;;;;;9.18;75.60;100677.16;5136755;27;20568;-69
2022/11/24 10:47:27;;;;;;;6.13;3.03;;;;;;;9.25;74.69;100673.97;5136646;27;20574;-68
2022/11/24 10:50:14;;;;;;;5.33;3.83;;;;;;;9.40;74.75;100674.75;5136431;27;20184;-68
2022/11/24 10:52:43;;;;;;;10.97;3.33;;;;;;;9.53;74.11;100677.47;5136842;27;20181;-68
2022/11/24 10:55:10;;;;;;;16.77;4.23;;;;;;;9.60;73.40;100681.44;5136203;27;20200;-68
2022/11/24 10:57:38;;;;;;;8.70;3.67;;;;;;;9.63;73.40;100689.25;5136173;27;20177;-68
2022/11/24 11:00:19;;;;;;;13.20;4.77;;;;;;;9.63;72.85;100691.91;5136226;27;20180;-68
2022/11/24 11:03:08;;;;;;;6.90;3.47;;;;;;;9.60;73.17;100700.16;5136602;27;20181;-68
2022/11/24 11:05:42;;;;;;;10.13;3.73;;;;;;;9.54;72.95;100696.06;5135973;27;20188;-68
2022/11/24 11:08:09;;;;;;;6.70;3.90;;;;;;;9.59;72.84;100696.59;5136217;27;20177;-68
2022/11/24 11:10:35;;;;;;;6.87;3.80;;;;;;;9.57;72.69;100697.66;5136147;27;20196;-68
2022/11/24 11:13:20;;;;;;;7.30;4.10;;;;;;;9.66;72.63;100696.19;5135907;27;20212;-68
2022/11/24 11:15:46;;;;;;;5.70;3.17;;;;;;;9.73;72.87;100697.47;5136639;27;20204;-68
2022/11/24 11:18:16;;;;;;;5.97;3.63;;;;;;;9.85;72.38;100707.34;5136143;27;20184;-68
2022/11/24 11:21:23;;;;;;;5.90;4.10;;;;;;;9.96;72.08;100717.28;5135751;27;20684;-68
2022/11/24 11:23:50;;;;;;;8.67;3.93;;;;;;;9.91;71.26;100716.75;5135657;27;20735;-68
2022/11/24 11:26:23;;;;;;;5.20;3.80;;;;;;;9.83;71.79;100714.59;5136251;27;20634;-68
2022/11/24 11:29:00;;;;;;;4.83;3.90;;;;;;;9.84;70.75;100712.78;5135589;27;20177;-68
2022/11/24 11:31:58;;;;;;;9.20;3.57;;;;;;;9.94;71.17;100722.75;5136219;27;20193;-68
2022/11/24 11:34:45;;;;;;;5.67;4.03;;;;;;;10.06;71.55;100720.19;5135297;27;20219;-68
2022/11/24 11:37:13;;;;;;;4.87;4.23;;;;;;;10.14;70.59;100726.69;5135916;27;20200;-68
2022/11/24 11:39:42;;;;;;;5.10;3.53;;;;;;;10.13;70.15;100725.00;5135427;27;20191;-68
2022/11/24 11:42:29;;;;;;;7.03;4.60;;;;;;;10.05;70.39;100723.81;5135682;27;20168;-68